Terminal Aerodrome Forecast
Issued by NWS

Home | Current Version | Previous Version | Graphics & Text | Print | Product List | Glossary On
Versions: 1 2 3 4 5 6 7 8 9 10 11 12 13
000
FTUS43 KICT 250520
TAFSLN
TAF
KSLN 250520Z 2506/2606 30008KT P6SM SCT120
     FM251200 26007KT P6SM FEW100
     FM251700 22014G22KT P6SM SCT100
     FM260000 19013KT P6SM BKN080=

USA.gov is the U.S. government's official web portal to all federal, state and local government web resources and services.